createdAt,value
2019-02-24T00:01:21.627Z,46.77
2019-02-24T00:03:51.795Z,38.43
2019-02-24T00:06:21.990Z,41.33
2019-02-24T00:08:52.135Z,41.97
2019-02-24T00:11:22.310Z,40.63
2019-02-24T00:13:52.529Z,37.87
2019-02-24T00:16:22.675Z,47.37
2019-02-24T00:18:53.081Z,46.27
2019-02-24T00:21:23.188Z,37.33
2019-02-24T00:23:53.447Z,47.83
2019-02-24T00:26:23.591Z,40.60
2019-02-24T00:28:53.729Z,39.30
2019-02-24T00:31:23.886Z,42.27
2019-02-24T00:33:54.054Z,48.27
2019-02-24T00:36:26.039Z,37.10
2019-02-24T00:38:56.113Z,46.07
2019-02-24T00:41:26.320Z,42.67
2019-02-24T00:43:56.593Z,43.20
2019-02-24T00:46:26.732Z,44.57
2019-02-24T00:48:56.890Z,50.17
2019-02-24T00:51:27.057Z,36.43
2019-02-24T00:53:57.151Z,41.10
2019-02-24T00:56:27.535Z,39.30
2019-02-24T00:58:57.567Z,37.50
2019-02-24T01:01:27.934Z,42.33
2019-02-24T01:03:58.151Z,37.57
2019-02-24T01:06:28.307Z,42.87
2019-02-24T01:08:58.587Z,32.77
2019-02-24T01:11:28.940Z,37.47
2019-02-24T01:13:59.060Z,35.57
2019-02-24T01:16:29.252Z,31.37
2019-02-24T01:18:59.332Z,31.07
2019-02-24T01:21:29.347Z,36.50
2019-02-24T01:23:59.490Z,35.03
2019-02-24T01:26:29.485Z,38.37
2019-02-24T01:28:59.549Z,42.23
2019-02-24T01:31:29.627Z,38.70
2019-02-24T01:33:59.744Z,34.97
2019-02-24T01:36:29.808Z,33.97
2019-02-24T01:38:59.924Z,40.90
2019-02-24T01:41:30.076Z,45.20
2019-02-24T01:44:00.066Z,40.20
2019-02-24T01:46:30.315Z,39.13
2019-02-24T01:49:00.461Z,44.83
2019-02-24T01:51:30.572Z,36.63
2019-02-24T01:54:00.818Z,44.47
2019-02-24T01:56:30.940Z,39.50
2019-02-24T01:59:01.075Z,34.50
2019-02-24T02:01:31.340Z,39.43
2019-02-24T02:04:01.389Z,40.70
2019-02-24T02:06:31.519Z,34.07
2019-02-24T02:09:01.714Z,36.10
2019-02-24T02:11:33.399Z,33.53
2019-02-24T02:14:03.659Z,36.73
2019-02-24T02:16:33.787Z,34.23
2019-02-24T02:19:03.860Z,30.83
2019-02-24T02:21:37.178Z,40.23
2019-02-24T02:24:08.563Z,33.77
2019-02-24T02:26:38.732Z,38.87
2019-02-24T02:29:08.970Z,35.97
2019-02-24T02:31:39.224Z,44.10
2019-02-24T02:34:09.388Z,38.93
2019-02-24T02:36:39.615Z,36.67
2019-02-24T02:39:09.991Z,38.03
2019-02-24T02:41:40.255Z,47.67
2019-02-24T02:44:10.594Z,34.47
2019-02-24T02:46:40.585Z,38.13
2019-02-24T02:49:10.678Z,39.23
2019-02-24T02:51:40.839Z,38.77
2019-02-24T02:54:11.091Z,43.93
2019-02-24T02:56:41.239Z,45.37
2019-02-24T02:59:11.381Z,45.10
2019-02-24T03:01:41.533Z,41.80
2019-02-24T03:04:11.557Z,33.23
2019-02-24T03:06:51.332Z,52.13
2019-02-24T03:09:21.649Z,39.77
2019-02-24T03:11:53.243Z,41.80
2019-02-24T03:14:23.731Z,47.20
2019-02-24T03:16:53.734Z,54.73
2019-02-24T03:19:23.877Z,39.77
2019-02-24T03:21:53.941Z,45.37
2019-02-24T03:24:24.091Z,40.27
2019-02-24T03:26:54.150Z,49.40
2019-02-24T03:29:24.270Z,43.97
2019-02-24T03:31:55.964Z,46.10
2019-02-24T03:34:26.021Z,49.63
2019-02-24T03:36:56.189Z,51.47
2019-02-24T03:39:26.267Z,49.20
2019-02-24T03:41:56.377Z,43.10
2019-02-24T03:44:26.507Z,45.83
2019-02-24T03:46:56.606Z,48.33
2019-02-24T03:49:26.688Z,51.67
2019-02-24T03:51:56.756Z,47.13
2019-02-24T03:54:26.911Z,52.57
2019-02-24T03:56:57.187Z,44.40
2019-02-24T03:59:27.475Z,51.13
2019-02-24T04:01:57.622Z,53.50
2019-02-24T04:04:29.176Z,52.33
2019-02-24T04:06:59.240Z,46.20
2019-02-24T04:09:29.489Z,43.90
2019-02-24T04:11:59.599Z,41.53
2019-02-24T04:14:29.818Z,43.30
2019-02-24T04:16:59.909Z,48.03
2019-02-24T04:19:30.104Z,40.90
2019-02-24T04:22:00.272Z,52.40
2019-02-24T04:24:30.325Z,42.03
2019-02-24T04:27:00.440Z,48.03
2019-02-24T04:29:30.628Z,47.03
2019-02-24T04:32:00.665Z,45.13
2019-02-24T04:34:30.815Z,51.43
2019-02-24T04:37:00.941Z,47.73
2019-02-24T04:39:31.215Z,51.23
2019-02-24T04:42:01.205Z,45.87
2019-02-24T04:44:31.335Z,50.47
2019-02-24T04:47:01.505Z,50.53
2019-02-24T04:49:31.617Z,48.40
2019-02-24T04:52:01.836Z,43.17
2019-02-24T04:54:33.997Z,40.47
2019-02-24T04:57:04.177Z,38.03
2019-02-24T04:59:35.231Z,47.80
2019-02-24T05:02:06.812Z,38.77
2019-02-24T05:04:37.020Z,52.43
2019-02-24T05:07:07.107Z,46.90
2019-02-24T05:09:37.274Z,45.07
2019-02-24T05:12:07.506Z,47.87
2019-02-24T05:14:37.639Z,45.70
2019-02-24T05:17:07.817Z,51.50
2019-02-24T05:19:37.938Z,56.90
2019-02-24T05:22:08.019Z,45.30
2019-02-24T05:24:38.177Z,49.73
2019-02-24T05:27:08.297Z,39.77
2019-02-24T05:29:45.177Z,45.70
2019-02-24T05:32:10.261Z,43.20
2019-02-24T05:34:40.350Z,44.57
2019-02-24T05:37:10.503Z,42.13
2019-02-24T05:39:41.597Z,41.07
2019-02-24T05:42:11.902Z,51.13
2019-02-24T05:44:41.962Z,42.30
2019-02-24T05:47:15.015Z,43.87
2019-02-24T05:49:45.208Z,44.63
2019-02-24T05:52:15.345Z,52.83
2019-02-24T05:54:45.894Z,48.47
2019-02-24T05:57:16.056Z,40.83
2019-02-24T05:59:55.058Z,45.00
2019-02-24T06:02:18.017Z,42.60
2019-02-24T06:04:48.395Z,38.33
2019-02-24T06:07:18.633Z,34.30
2019-02-24T06:09:48.651Z,40.20
2019-02-24T06:12:18.866Z,50.23
2019-02-24T06:14:49.096Z,43.57
2019-02-24T06:17:19.414Z,42.10
2019-02-24T06:19:49.555Z,46.37
2019-02-24T06:22:19.825Z,41.80
2019-02-24T06:24:49.955Z,51.17
2019-02-24T06:27:20.099Z,49.37
2019-02-24T06:29:50.334Z,47.63
2019-02-24T06:32:20.502Z,43.53
2019-02-24T06:34:50.752Z,41.20
2019-02-24T06:37:20.995Z,42.60
2019-02-24T06:39:51.353Z,36.67
2019-02-24T06:42:21.496Z,35.13
2019-02-24T06:44:51.828Z,40.30
2019-02-24T06:47:21.960Z,45.80
2019-02-24T06:49:52.153Z,46.90
2019-02-24T06:52:25.642Z,37.23
2019-02-24T06:54:55.755Z,47.73
2019-02-24T06:57:25.917Z,45.60
2019-02-24T06:59:56.293Z,47.30
2019-02-24T07:02:26.397Z,34.27
2019-02-24T07:04:56.557Z,38.97
2019-02-24T07:07:26.692Z,32.00
2019-02-24T07:09:56.814Z,45.60
2019-02-24T07:12:26.987Z,38.30
2019-02-24T07:14:57.183Z,42.97
2019-02-24T07:17:27.274Z,37.43
2019-02-24T07:19:57.392Z,33.60
2019-02-24T07:22:27.508Z,44.23
2019-02-24T07:24:57.664Z,39.07
2019-02-24T07:27:27.915Z,37.30
2019-02-24T07:29:58.166Z,35.13
2019-02-24T07:32:28.418Z,44.67
2019-02-24T07:34:58.506Z,41.30
2019-02-24T07:37:28.509Z,40.60
2019-02-24T07:39:58.687Z,45.73
2019-02-24T07:42:28.906Z,36.00
2019-02-24T07:44:59.048Z,31.73
2019-02-24T07:47:29.191Z,40.33
2019-02-24T07:49:59.259Z,32.47
2019-02-24T07:52:29.322Z,30.17
2019-02-24T07:54:59.496Z,27.93
2019-02-24T07:57:30.697Z,32.33
2019-02-24T08:00:00.817Z,43.57
2019-02-24T08:02:32.138Z,43.43
2019-02-24T08:05:02.227Z,39.07
2019-02-24T08:07:32.427Z,35.40
2019-02-24T08:10:02.591Z,33.03
2019-02-24T08:12:32.813Z,35.83
2019-02-24T08:15:02.921Z,33.30
2019-02-24T08:17:34.221Z,34.50
2019-02-24T08:20:05.059Z,37.10
2019-02-24T08:22:35.025Z,35.67
2019-02-24T08:25:05.459Z,31.57
2019-02-24T08:27:35.781Z,41.27
2019-02-24T08:30:06.717Z,34.00
2019-02-24T08:32:37.451Z,25.70
2019-02-24T08:35:07.965Z,28.30
2019-02-24T08:37:38.029Z,33.50
2019-02-24T08:40:08.653Z,29.37
2019-02-24T08:42:38.741Z,28.03
2019-02-24T08:45:09.083Z,34.77
2019-02-24T08:47:39.329Z,31.77
2019-02-24T08:50:09.885Z,32.00
2019-02-24T08:52:40.158Z,31.77
2019-02-24T08:55:10.250Z,33.97
2019-02-24T08:57:40.378Z,28.60
2019-02-24T09:00:11.231Z,27.03
2019-02-24T09:02:41.468Z,28.73
2019-02-24T09:05:11.584Z,28.40
2019-02-24T09:07:43.553Z,33.50
2019-02-24T09:10:13.755Z,32.63
2019-02-24T09:12:43.939Z,35.57
2019-02-24T09:15:14.144Z,32.80
2019-02-24T09:17:44.319Z,37.90
2019-02-24T09:20:14.591Z,27.27
2019-02-24T09:22:44.868Z,31.80
2019-02-24T09:25:15.272Z,30.87
2019-02-24T09:27:45.413Z,29.43
2019-02-24T09:30:15.556Z,28.80
2019-02-24T09:32:45.885Z,34.73
2019-02-24T09:35:16.098Z,33.20
2019-02-24T09:37:47.421Z,31.83
2019-02-24T09:40:17.532Z,32.53
2019-02-24T09:42:48.276Z,25.70
2019-02-24T09:45:18.512Z,25.00
2019-02-24T09:47:48.652Z,32.27
2019-02-24T09:50:18.851Z,28.80
2019-02-24T09:52:49.089Z,23.90
2019-02-24T09:55:19.343Z,27.97
2019-02-24T09:57:49.480Z,31.93
2019-02-24T10:00:21.968Z,26.23
2019-02-24T10:02:51.928Z,34.63
2019-02-24T10:05:22.320Z,31.45
2019-02-24T10:07:52.744Z,29.13
2019-02-24T10:10:22.900Z,36.33
2019-02-24T10:12:53.061Z,32.50
2019-02-24T10:15:23.235Z,26.80
2019-02-24T10:17:53.643Z,32.20
2019-02-24T10:20:24.002Z,32.67
2019-02-24T10:22:54.195Z,34.53
2019-02-24T10:25:24.438Z,28.33
2019-02-24T10:27:54.631Z,35.68
2019-02-24T10:30:24.893Z,35.68
2019-02-24T10:32:55.206Z,29.33
2019-02-24T10:35:25.346Z,35.10
2019-02-24T10:37:55.563Z,26.80
2019-02-24T10:40:25.688Z,32.90
2019-02-24T10:42:55.982Z,30.27
2019-02-24T10:45:26.253Z,33.67
2019-02-24T10:47:56.550Z,34.07
2019-02-24T10:50:26.823Z,27.80
2019-02-24T10:52:57.048Z,30.70
2019-02-24T10:55:27.293Z,27.33
2019-02-24T10:57:57.851Z,35.25
2019-02-24T11:00:28.152Z,30.57
2019-02-24T11:02:58.419Z,30.83
2019-02-24T11:05:28.773Z,26.40
2019-02-24T11:07:59.080Z,33.00
2019-02-24T11:10:29.193Z,35.00
2019-02-24T11:12:59.443Z,25.55
2019-02-24T11:15:30.841Z,30.75
2019-02-24T11:18:01.573Z,27.98
2019-02-24T11:20:33.080Z,36.77
2019-02-24T11:23:04.916Z,35.68
2019-02-24T11:25:35.135Z,34.23
2019-02-24T11:28:05.440Z,27.25
2019-02-24T11:30:35.639Z,30.02
2019-02-24T11:33:05.910Z,32.28
2019-02-24T11:35:36.378Z,30.05
2019-02-24T11:38:08.339Z,30.08
2019-02-24T11:40:38.667Z,33.90
2019-02-24T11:43:08.826Z,30.48
2019-02-24T11:45:39.196Z,36.15
2019-02-24T11:48:09.421Z,34.30
2019-02-24T11:50:39.538Z,31.42
2019-02-24T11:53:09.675Z,29.80
2019-02-24T11:55:40.052Z,25.82
2019-02-24T11:58:10.235Z,34.03
2019-02-24T12:00:40.606Z,35.98
2019-02-24T12:03:10.828Z,31.68
2019-02-24T12:05:41.083Z,36.83
2019-02-24T12:08:11.333Z,29.45
2019-02-24T12:10:42.738Z,34.45
2019-02-24T12:13:13.039Z,32.33
2019-02-24T12:15:43.182Z,35.05
2019-02-24T12:18:13.352Z,30.97
2019-02-24T12:20:43.579Z,39.08
2019-02-24T12:23:13.854Z,36.43
2019-02-24T12:25:43.991Z,31.12
2019-02-24T12:28:14.194Z,33.65
2019-02-24T12:30:44.476Z,35.50
2019-02-24T12:33:14.806Z,38.17
2019-02-24T12:35:44.977Z,36.33
2019-02-24T12:38:19.357Z,35.70
2019-02-24T12:40:49.520Z,33.33
2019-02-24T12:43:19.715Z,38.28
2019-02-24T12:45:49.942Z,37.65
2019-02-24T12:48:20.236Z,31.23
2019-02-24T12:50:50.550Z,34.75
2019-02-24T12:53:20.765Z,38.85
2019-02-24T12:55:51.272Z,38.78
2019-02-24T12:58:21.691Z,33.80
2019-02-24T13:00:52.014Z,36.98
2019-02-24T13:03:24.181Z,34.58
2019-02-24T13:05:54.119Z,37.58
2019-02-24T13:08:24.272Z,34.43
2019-02-24T13:10:55.772Z,40.17
2019-02-24T13:13:26.070Z,40.12
2019-02-24T13:15:56.275Z,39.38
2019-02-24T13:18:26.579Z,34.70
2019-02-24T13:20:56.782Z,32.15
2019-02-24T13:23:26.997Z,35.90
2019-02-24T13:25:57.204Z,39.05
2019-02-24T13:28:27.632Z,37.73
2019-02-24T13:30:57.840Z,40.20
2019-02-24T13:33:27.973Z,37.48
2019-02-24T13:35:58.310Z,36.25
2019-02-24T13:38:28.524Z,43.00
2019-02-24T13:40:58.795Z,40.03
2019-02-24T13:43:29.147Z,41.75
2019-02-24T13:45:59.443Z,37.45
2019-02-24T13:48:30.531Z,37.23
2019-02-24T13:51:00.740Z,34.10
2019-02-24T13:53:30.853Z,37.30
2019-02-24T13:56:01.675Z,31.70
2019-02-24T13:58:34.136Z,39.13
2019-02-24T14:01:05.651Z,36.48
2019-02-24T14:03:35.998Z,40.98
2019-02-24T14:06:06.252Z,41.20
2019-02-24T14:08:36.613Z,31.80
2019-02-24T14:11:06.822Z,38.98
2019-02-24T14:13:37.051Z,39.10
2019-02-24T14:16:08.388Z,37.63
2019-02-24T14:18:38.666Z,34.67
2019-02-24T14:21:08.836Z,34.05
2019-02-24T14:23:39.095Z,36.48
2019-02-24T14:26:09.758Z,33.73
2019-02-24T14:28:39.998Z,31.85
2019-02-24T14:31:10.184Z,36.90
2019-02-24T14:33:40.428Z,39.92
2019-02-24T14:36:10.570Z,37.42
2019-02-24T14:38:40.812Z,34.18
2019-02-24T14:41:11.210Z,38.85
2019-02-24T14:43:41.397Z,37.73
2019-02-24T14:46:11.592Z,34.33
2019-02-24T14:48:41.822Z,38.80
2019-02-24T14:51:12.115Z,33.50
2019-02-24T14:53:42.574Z,40.23
2019-02-24T14:56:13.068Z,36.65
2019-02-24T14:58:43.447Z,33.25
2019-02-24T15:01:13.613Z,43.10
2019-02-24T15:03:44.077Z,44.48
2019-02-24T15:06:14.502Z,33.10
2019-02-24T15:08:44.779Z,39.63
2019-02-24T15:11:15.159Z,41.98
2019-02-24T15:13:45.454Z,36.77
2019-02-24T15:16:15.645Z,37.98
2019-02-24T15:18:46.022Z,36.00
2019-02-24T15:21:16.244Z,38.13
2019-02-24T15:23:46.442Z,41.58
2019-02-24T15:26:16.737Z,39.45
2019-02-24T15:28:47.003Z,35.00
2019-02-24T15:31:17.133Z,36.60
2019-02-24T15:33:47.364Z,43.52
2019-02-24T15:36:17.578Z,42.08
2019-02-24T15:38:48.088Z,44.45
2019-02-24T15:41:19.822Z,48.40
2019-02-24T15:43:50.518Z,49.60
2019-02-24T15:46:21.411Z,40.40
2019-02-24T15:48:51.603Z,42.30
2019-02-24T15:51:21.924Z,38.47
2019-02-24T15:53:54.976Z,45.10
2019-02-24T15:56:25.166Z,49.13
2019-02-24T15:58:55.355Z,47.03
2019-02-24T16:01:25.579Z,52.90
2019-02-24T16:03:55.709Z,45.03
2019-02-24T16:06:37.010Z,53.52
2019-02-24T16:09:01.740Z,53.63
2019-02-24T16:11:33.820Z,56.80
2019-02-24T16:14:04.178Z,58.73
2019-02-24T16:16:34.446Z,61.33
2019-02-24T16:19:04.726Z,61.92
2019-02-24T16:21:34.883Z,62.15
2019-02-24T16:24:05.128Z,58.80
2019-02-24T16:26:35.406Z,48.90
2019-02-24T16:29:05.659Z,50.95
2019-02-24T16:31:36.072Z,49.10
2019-02-24T16:34:06.412Z,48.70
2019-02-24T16:36:36.625Z,52.25
2019-02-24T16:39:07.219Z,51.70
2019-02-24T16:41:37.614Z,51.90
2019-02-24T16:44:07.994Z,56.70
2019-02-24T16:46:38.202Z,57.62
2019-02-24T16:49:08.306Z,57.00
2019-02-24T16:51:38.412Z,61.83
2019-02-24T16:54:08.656Z,72.07
2019-02-24T16:56:38.801Z,78.00
2019-02-24T16:59:09.029Z,83.42
2019-02-24T17:01:39.290Z,67.80
2019-02-24T17:04:09.704Z,87.53
2019-02-24T17:06:40.240Z,101.58
2019-02-24T17:09:10.402Z,86.47
2019-02-24T17:11:40.847Z,74.72
2019-02-24T17:14:11.143Z,75.67
2019-02-24T17:16:41.387Z,60.38
2019-02-24T17:19:11.783Z,58.98
2019-02-24T17:21:41.976Z,69.97
2019-02-24T17:24:12.160Z,69.57
2019-02-24T17:26:42.326Z,60.77
2019-02-24T17:29:12.546Z,55.13
2019-02-24T17:31:42.691Z,67.63
2019-02-24T17:34:12.968Z,54.17
2019-02-24T17:36:43.274Z,67.00
2019-02-24T17:39:13.689Z,77.23
2019-02-24T17:41:44.573Z,84.90
2019-02-24T17:44:14.823Z,93.77
2019-02-24T17:46:45.154Z,85.33
2019-02-24T17:49:19.851Z,97.30
2019-02-24T17:51:53.216Z,99.23
2019-02-24T17:54:23.647Z,104.07
2019-02-24T17:56:53.911Z,109.00
2019-02-24T17:59:24.174Z,107.17
2019-02-24T18:01:54.610Z,103.27
2019-02-24T18:04:24.905Z,93.03
2019-02-24T18:06:55.205Z,90.07
2019-02-24T18:09:25.592Z,92.60
2019-02-24T18:11:55.895Z,90.60
2019-02-24T18:14:26.157Z,89.47
2019-02-24T18:16:56.487Z,81.97
2019-02-24T18:19:26.785Z,67.03
2019-02-24T18:21:57.269Z,82.63
2019-02-24T18:24:27.655Z,74.00
2019-02-24T18:26:57.844Z,74.93
2019-02-24T18:29:29.319Z,83.37
2019-02-24T18:32:19.240Z,120.17
2019-02-24T18:34:50.846Z,144.70
2019-02-24T18:37:21.059Z,137.87
2019-02-24T18:39:51.407Z,118.87
2019-02-24T18:42:21.465Z,121.70
2019-02-24T18:44:51.669Z,96.43
2019-02-24T18:47:21.769Z,76.67
2019-02-24T18:49:51.995Z,85.73
2019-02-24T18:52:22.237Z,71.90
2019-02-24T18:54:52.399Z,76.87
2019-02-24T18:57:22.660Z,69.30
2019-02-24T18:59:53.064Z,64.33
2019-02-24T19:02:23.185Z,65.87
2019-02-24T19:04:53.404Z,60.90
2019-02-24T19:07:23.807Z,67.60
2019-02-24T19:09:54.082Z,68.60
2019-02-24T19:12:24.266Z,68.60
2019-02-24T19:14:54.604Z,74.10
2019-02-24T19:17:24.900Z,81.07
2019-02-24T19:19:55.209Z,79.37
2019-02-24T19:22:25.354Z,72.77
2019-02-24T19:24:55.565Z,71.50
2019-02-24T19:27:25.832Z,82.67
2019-02-24T19:29:56.136Z,75.00
2019-02-24T19:32:26.254Z,73.63
2019-02-24T19:34:56.734Z,82.20
2019-02-24T19:37:27.053Z,68.60
2019-02-24T19:39:57.202Z,75.63
2019-02-24T19:42:27.384Z,90.07
2019-02-24T19:44:57.644Z,82.83
2019-02-24T19:47:27.868Z,110.20
2019-02-24T19:49:59.106Z,108.80
2019-02-24T19:52:29.361Z,80.87
2019-02-24T19:54:59.441Z,91.87
2019-02-24T19:57:41.550Z,84.43
2019-02-24T20:00:17.680Z,85.40
2019-02-24T20:02:48.032Z,81.83
2019-02-24T20:05:20.616Z,87.77
2019-02-24T20:07:51.125Z,96.80
2019-02-24T20:10:25.004Z,93.47
2019-02-24T20:12:55.512Z,91.70
2019-02-24T20:15:27.098Z,99.70
2019-02-24T20:17:57.402Z,100.63
2019-02-24T20:20:27.668Z,99.00
2019-02-24T20:22:57.902Z,108.87
2019-02-24T20:25:28.159Z,98.07
2019-02-24T20:28:00.618Z,99.60
2019-02-24T20:30:34.006Z,96.20
2019-02-24T20:33:04.459Z,105.53
2019-02-24T20:35:36.425Z,94.80
2019-02-24T20:38:06.835Z,85.23
2019-02-24T20:40:37.159Z,80.90
2019-02-24T20:43:07.552Z,94.53
2019-02-24T20:45:37.814Z,97.33
2019-02-24T20:48:08.009Z,100.00
2019-02-24T20:50:38.190Z,112.03
2019-02-24T20:53:08.585Z,101.17
2019-02-24T20:55:38.950Z,105.63
2019-02-24T20:58:09.226Z,89.63
2019-02-24T21:00:40.815Z,96.77
2019-02-24T21:03:11.249Z,96.67
2019-02-24T21:05:41.928Z,98.00
2019-02-24T21:08:12.115Z,90.00
2019-02-24T21:10:42.408Z,88.90
2019-02-24T21:13:12.725Z,75.07
2019-02-24T21:15:42.984Z,88.00
2019-02-24T21:18:13.192Z,86.43
2019-02-24T21:20:43.585Z,84.87
2019-02-24T21:23:14.017Z,91.60
2019-02-24T21:25:44.275Z,87.10
2019-02-24T21:28:14.662Z,83.77
2019-02-24T21:30:44.902Z,84.10
2019-02-24T21:33:15.211Z,90.33
2019-02-24T21:35:46.612Z,94.73
2019-02-24T21:38:16.828Z,88.27
2019-02-24T21:40:47.189Z,88.77
2019-02-24T21:43:17.442Z,96.27
2019-02-24T21:45:47.621Z,91.13
2019-02-24T21:48:17.908Z,87.40
2019-02-24T21:50:48.437Z,95.57
2019-02-24T21:53:18.568Z,90.03
2019-02-24T21:55:48.764Z,84.77
2019-02-24T21:58:18.902Z,83.90
2019-02-24T22:00:49.213Z,83.13
2019-02-24T22:03:19.244Z,100.90
2019-02-24T22:05:49.414Z,83.93
2019-02-24T22:08:20.804Z,82.83
2019-02-24T22:10:50.984Z,95.23
2019-02-24T22:13:21.344Z,83.93
2019-02-24T22:15:52.341Z,95.30
2019-02-24T22:18:24.025Z,91.27
2019-02-24T22:20:54.297Z,99.13
2019-02-24T22:23:24.819Z,94.17
2019-02-24T22:25:55.096Z,98.67
2019-02-24T22:28:25.232Z,90.17
2019-02-24T22:30:55.524Z,89.93
2019-02-24T22:33:25.603Z,97.90
2019-02-24T22:35:55.796Z,96.43
2019-02-24T22:38:25.964Z,95.37
2019-02-24T22:40:56.195Z,88.20
2019-02-24T22:43:26.262Z,88.67
2019-02-24T22:45:56.594Z,90.47
2019-02-24T22:48:26.991Z,81.50
2019-02-24T22:50:57.386Z,79.53
2019-02-24T22:53:27.646Z,83.07
2019-02-24T22:55:57.908Z,81.77
2019-02-24T22:58:28.067Z,80.23
2019-02-24T23:01:06.685Z,80.53
2019-02-24T23:03:43.074Z,68.70
2019-02-24T23:06:13.274Z,77.97
2019-02-24T23:08:43.349Z,66.73
2019-02-24T23:11:13.615Z,68.23
2019-02-24T23:13:44.171Z,64.73
2019-02-24T23:16:14.386Z,64.70
2019-02-24T23:18:44.583Z,68.30
2019-02-24T23:21:14.817Z,69.73
2019-02-24T23:23:45.194Z,59.83
2019-02-24T23:26:15.457Z,62.53
2019-02-24T23:28:45.668Z,70.70
2019-02-24T23:31:15.907Z,67.77
2019-02-24T23:33:46.162Z,71.97
2019-02-24T23:36:16.406Z,67.73
2019-02-24T23:38:46.847Z,67.70
2019-02-24T23:41:17.002Z,59.83
2019-02-24T23:43:47.156Z,72.40
2019-02-24T23:46:17.303Z,67.43
2019-02-24T23:48:47.523Z,58.30
2019-02-24T23:51:18.863Z,57.13
2019-02-24T23:53:48.999Z,70.67
2019-02-24T23:56:19.142Z,58.60
2019-02-24T23:58:49.297Z,53.93
